sensor_id;sensor_type;location;lat;lon;timestamp;pressure;altitude;pressure_sealevel;temperature;humidity
17209;BME280;8720;48.488;9.202;2023-02-28T00:01:22;97562.31;;;3.60;43.15
17209;BME280;8720;48.488;9.202;2023-02-28T00:03:50;97579.53;;;3.58;43.62
17209;BME280;8720;48.488;9.202;2023-02-28T00:06:18;97565.78;;;3.60;43.16
17209;BME280;8720;48.488;9.202;2023-02-28T00:08:48;97563.13;;;3.54;43.31
17209;BME280;8720;48.488;9.202;2023-02-28T00:11:19;97563.16;;;3.57;43.34
17209;BME280;8720;48.488;9.202;2023-02-28T00:13:48;97569.19;;;3.56;43.41
17209;BME280;8720;48.488;9.202;2023-02-28T00:16:19;97551.00;;;3.49;43.40
17209;BME280;8720;48.488;9.202;2023-02-28T00:18:48;97569.19;;;3.56;43.44
17209;BME280;8720;48.488;9.202;2023-02-28T00:21:17;97570.03;;;3.57;43.47
17209;BME280;8720;48.488;9.202;2023-02-28T00:23:44;97567.47;;;3.58;43.61
17209;BME280;8720;48.488;9.202;2023-02-28T00:26:12;97572.66;;;3.58;43.53
17209;BME280;8720;48.488;9.202;2023-02-28T00:28:44;97569.19;;;3.58;43.68
17209;BME280;8720;48.488;9.202;2023-02-28T00:31:12;97575.19;;;3.55;43.41
17209;BME280;8720;48.488;9.202;2023-02-28T00:33:39;97563.13;;;3.54;43.53
17209;BME280;8720;48.488;9.202;2023-02-28T00:36:09;97568.28;;;3.54;43.71
17209;BME280;8720;48.488;9.202;2023-02-28T00:38:38;97560.47;;;3.51;43.72
17209;BME280;8720;48.488;9.202;2023-02-28T00:41:07;97551.75;;;3.43;43.83
17209;BME280;8720;48.488;9.202;2023-02-28T00:43:37;97561.28;;;3.46;43.82
17209;BME280;8720;48.488;9.202;2023-02-28T00:46:07;97571.59;;;3.43;43.54
17209;BME280;8720;48.488;9.202;2023-02-28T00:48:35;97568.13;;;3.41;43.88
17209;BME280;8720;48.488;9.202;2023-02-28T00:51:03;97565.53;;;3.41;43.76
17209;BME280;8720;48.488;9.202;2023-02-28T00:53:31;97566.38;;;3.40;43.96
17209;BME280;8720;48.488;9.202;2023-02-28T00:55:59;97567.22;;;3.39;44.01
17209;BME280;8720;48.488;9.202;2023-02-28T00:58:26;97565.47;;;3.38;43.93
17209;BME280;8720;48.488;9.202;2023-02-28T01:00:54;97561.16;;;3.35;43.90
17209;BME280;8720;48.488;9.202;2023-02-28T01:03:23;97562.06;;;3.37;43.99
17209;BME280;8720;48.488;9.202;2023-02-28T01:05:50;97564.63;;;3.37;44.02
17209;BME280;8720;48.488;9.202;2023-02-28T01:08:19;97566.34;;;3.38;44.12
17209;BME280;8720;48.488;9.202;2023-02-28T01:10:46;97558.59;;;3.38;44.06
17209;BME280;8720;48.488;9.202;2023-02-28T01:13:15;97561.19;;;3.38;44.10
17209;BME280;8720;48.488;9.202;2023-02-28T01:15:49;97559.47;;;3.37;43.99
17209;BME280;8720;48.488;9.202;2023-02-28T01:18:18;97561.16;;;3.35;44.08
17209;BME280;8720;48.488;9.202;2023-02-28T01:20:48;97562.88;;;3.35;44.27
17209;BME280;8720;48.488;9.202;2023-02-28T01:23:18;97562.88;;;3.33;44.15
17209;BME280;8720;48.488;9.202;2023-02-28T01:25:46;97567.16;;;3.31;44.57
17209;BME280;8720;48.488;9.202;2023-02-28T01:28:13;97557.59;;;3.27;44.46
17209;BME280;8720;48.488;9.202;2023-02-28T01:30:41;97564.47;;;3.24;44.72
17209;BME280;8720;48.488;9.202;2023-02-28T01:33:08;97560.13;;;3.23;44.76
17209;BME280;8720;48.488;9.202;2023-02-28T01:35:36;97557.50;;;3.20;44.71
17209;BME280;8720;48.488;9.202;2023-02-28T01:38:05;97546.19;;;3.10;44.67
17209;BME280;8720;48.488;9.202;2023-02-28T01:40:32;97548.81;;;3.16;44.89
17209;BME280;8720;48.488;9.202;2023-02-28T01:43:00;97550.56;;;3.17;44.81
17209;BME280;8720;48.488;9.202;2023-02-28T01:45:29;97541.84;;;3.09;45.14
17209;BME280;8720;48.488;9.202;2023-02-28T01:48:04;97541.06;;;3.15;44.94
17209;BME280;8720;48.488;9.202;2023-02-28T01:50:37;97549.69;;;3.15;44.96
17209;BME280;8720;48.488;9.202;2023-02-28T01:53:14;97539.34;;;3.14;45.01
17209;BME280;8720;48.488;9.202;2023-02-28T01:55:47;97531.47;;;3.06;45.21
17209;BME280;8720;48.488;9.202;2023-02-28T01:58:17;97543.63;;;3.12;45.00
17209;BME280;8720;48.488;9.202;2023-02-28T02:00:46;97541.00;;;3.10;45.32
17209;BME280;8720;48.488;9.202;2023-02-28T02:03:17;97537.53;;;3.08;45.18
17209;BME280;8720;48.488;9.202;2023-02-28T02:05:46;97533.19;;;3.04;45.22
17209;BME280;8720;48.488;9.202;2023-02-28T02:08:20;97534.00;;;3.03;45.23
17209;BME280;8720;48.488;9.202;2023-02-28T02:10:51;97531.41;;;3.03;45.26
17209;BME280;8720;48.488;9.202;2023-02-28T02:13:55;97523.66;;;3.00;45.10
17209;BME280;8720;48.488;9.202;2023-02-28T02:16:41;97514.09;;;2.95;45.24
17209;BME280;8720;48.488;9.202;2023-02-28T02:23:15;97508.84;;;2.89;45.61
17209;BME280;8720;48.488;9.202;2023-02-28T02:25:53;97512.25;;;2.88;45.60
17209;BME280;8720;48.488;9.202;2023-02-28T02:28:56;97515.72;;;2.90;45.51
17209;BME280;8720;48.488;9.202;2023-02-28T02:31:55;97514.03;;;2.90;45.71
17209;BME280;8720;48.488;9.202;2023-02-28T02:34:42;97508.88;;;2.90;45.79
17209;BME280;8720;48.488;9.202;2023-02-28T02:37:28;97515.78;;;2.91;45.65
17209;BME280;8720;48.488;9.202;2023-02-28T02:40:08;97515.72;;;2.90;45.78
17209;BME280;8720;48.488;9.202;2023-02-28T02:42:56;97512.34;;;2.92;45.93
17209;BME280;8720;48.488;9.202;2023-02-28T02:45:33;97514.88;;;2.89;45.73
17209;BME280;8720;48.488;9.202;2023-02-28T02:48:05;97541.66;;;2.96;45.68
17209;BME280;8720;48.488;9.202;2023-02-28T02:50:38;97523.63;;;2.99;45.80
17209;BME280;8720;48.488;9.202;2023-02-28T02:53:09;97522.78;;;3.01;45.77
17209;BME280;8720;48.488;9.202;2023-02-28T02:55:43;97521.09;;;3.05;45.97
17209;BME280;8720;48.488;9.202;2023-02-28T02:58:16;97531.47;;;3.06;45.79
17209;BME280;8720;48.488;9.202;2023-02-28T03:03:31;97529.91;;;3.17;45.68
17209;BME280;8720;48.488;9.202;2023-02-28T03:06:02;97523.06;;;3.22;45.97
17209;BME280;8720;48.488;9.202;2023-02-28T03:08:35;97520.53;;;3.27;46.05
17209;BME280;8720;48.488;9.202;2023-02-28T03:11:05;97521.44;;;3.30;45.70
17209;BME280;8720;48.488;9.202;2023-02-28T03:14:09;97523.22;;;3.34;46.05
17209;BME280;8720;48.488;9.202;2023-02-28T03:17:05;97521.50;;;3.35;45.80
17209;BME280;8720;48.488;9.202;2023-02-28T03:19:52;97525.88;;;3.40;45.79
17209;BME280;8720;48.488;9.202;2023-02-28T03:22:44;97514.66;;;3.41;45.90
17209;BME280;8720;48.488;9.202;2023-02-28T03:25:27;97516.41;;;3.41;45.92
17209;BME280;8720;48.488;9.202;2023-02-28T03:28:04;97518.13;;;3.43;45.87
17209;BME280;8720;48.488;9.202;2023-02-28T03:30:41;97522.50;;;3.46;46.02
17209;BME280;8720;48.488;9.202;2023-02-28T03:33:18;97513.91;;;3.48;45.94
17209;BME280;8720;48.488;9.202;2023-02-28T03:35:53;97506.13;;;3.47;46.03
17209;BME280;8720;48.488;9.202;2023-02-28T03:38:31;97506.97;;;3.46;46.12
17209;BME280;8720;48.488;9.202;2023-02-28T03:41:10;97509.63;;;3.49;46.15
17209;BME280;8720;48.488;9.202;2023-02-28T03:43:49;97514.78;;;3.49;46.00
17209;BME280;8720;48.488;9.202;2023-02-28T03:46:23;97502.63;;;3.42;46.06
17209;BME280;8720;48.488;9.202;2023-02-28T03:48:57;97517.28;;;3.43;46.10
17209;BME280;8720;48.488;9.202;2023-02-28T03:51:29;97510.38;;;3.43;46.43
17209;BME280;8720;48.488;9.202;2023-02-28T03:54:06;97500.00;;;3.37;46.35
17209;BME280;8720;48.488;9.202;2023-02-28T03:56:42;97527.59;;;3.41;46.44
17209;BME280;8720;48.488;9.202;2023-02-28T03:59:15;97512.06;;;3.38;46.41
17209;BME280;8720;48.488;9.202;2023-02-28T04:01:47;97518.94;;;3.38;46.50
17209;BME280;8720;48.488;9.202;2023-02-28T04:04:16;97512.03;;;3.35;46.26
17209;BME280;8720;48.488;9.202;2023-02-28T04:06:45;97515.50;;;3.37;46.62
17209;BME280;8720;48.488;9.202;2023-02-28T04:09:14;97515.50;;;3.37;46.46
17209;BME280;8720;48.488;9.202;2023-02-28T04:11:44;97517.22;;;3.38;46.60
17209;BME280;8720;48.488;9.202;2023-02-28T04:14:12;97512.06;;;3.40;46.66
17209;BME280;8720;48.488;9.202;2023-02-28T04:16:42;97502.53;;;3.34;46.75
17209;BME280;8720;48.488;9.202;2023-02-28T04:19:12;97515.56;;;3.43;46.62
17209;BME280;8720;48.488;9.202;2023-02-28T04:21:41;97509.56;;;3.46;46.75
17209;BME280;8720;48.488;9.202;2023-02-28T04:24:13;97507.84;;;3.46;46.90
17209;BME280;8720;48.488;9.202;2023-02-28T04:26:43;97517.31;;;3.46;46.68
17209;BME280;8720;48.488;9.202;2023-02-28T04:29:13;97504.31;;;3.38;46.37
17209;BME280;8720;48.488;9.202;2023-02-28T04:31:41;97513.84;;;3.44;46.68
17209;BME280;8720;48.488;9.202;2023-02-28T04:34:08;97507.78;;;3.42;46.91
17209;BME280;8720;48.488;9.202;2023-02-28T04:36:36;97508.66;;;3.42;46.83
17209;BME280;8720;48.488;9.202;2023-02-28T04:39:03;97505.19;;;3.42;46.98
17209;BME280;8720;48.488;9.202;2023-02-28T04:41:32;97511.25;;;3.42;46.87
17209;BME280;8720;48.488;9.202;2023-02-28T04:43:59;97508.66;;;3.42;46.80
17209;BME280;8720;48.488;9.202;2023-02-28T04:46:27;97510.38;;;3.43;47.11
17209;BME280;8720;48.488;9.202;2023-02-28T04:48:56;97503.50;;;3.45;46.68
17209;BME280;8720;48.488;9.202;2023-02-28T04:51:24;97504.41;;;3.47;47.02
17209;BME280;8720;48.488;9.202;2023-02-28T04:53:51;97505.31;;;3.51;46.99
17209;BME280;8720;48.488;9.202;2023-02-28T04:56:19;97499.28;;;3.52;46.69
17209;BME280;8720;48.488;9.202;2023-02-28T04:58:48;97487.09;;;3.40;47.06
17209;BME280;8720;48.488;9.202;2023-02-28T05:01:22;97488.00;;;3.44;46.92
17209;BME280;8720;48.488;9.202;2023-02-28T05:03:50;97495.78;;;3.47;47.05
17209;BME280;8720;48.488;9.202;2023-02-28T05:06:22;97509.66;;;3.55;46.83
17209;BME280;8720;48.488;9.202;2023-02-28T05:08:51;97517.41;;;3.55;46.78
17209;BME280;8720;48.488;9.202;2023-02-28T05:11:20;97523.44;;;3.52;47.17
17209;BME280;8720;48.488;9.202;2023-02-28T05:13:51;97524.31;;;3.54;47.08
17209;BME280;8720;48.488;9.202;2023-02-28T05:16:19;97519.16;;;3.56;47.14
17209;BME280;8720;48.488;9.202;2023-02-28T05:18:47;97523.47;;;3.57;47.15
17209;BME280;8720;48.488;9.202;2023-02-28T05:21:27;97524.34;;;3.57;47.11
17209;BME280;8720;48.488;9.202;2023-02-28T05:23:57;97531.28;;;3.58;47.25
17209;BME280;8720;48.488;9.202;2023-02-28T05:26:27;97526.09;;;3.58;47.07
17209;BME280;8720;48.488;9.202;2023-02-28T05:28:56;97534.69;;;3.57;47.14
17209;BME280;8720;48.488;9.202;2023-02-28T05:31:24;97525.22;;;3.58;47.33
17209;BME280;8720;48.488;9.202;2023-02-28T05:33:52;97534.75;;;3.60;47.28
17209;BME280;8720;48.488;9.202;2023-02-28T05:36:19;97533.00;;;3.59;47.17
17209;BME280;8720;48.488;9.202;2023-02-28T05:38:47;97519.16;;;3.54;47.32
17209;BME280;8720;48.488;9.202;2023-02-28T05:41:15;97525.22;;;3.59;47.30
17209;BME280;8720;48.488;9.202;2023-02-28T05:43:43;97535.59;;;3.61;47.35
17209;BME280;8720;48.488;9.202;2023-02-28T05:46:12;97535.59;;;3.61;47.08
17209;BME280;8720;48.488;9.202;2023-02-28T05:48:42;97524.41;;;3.62;47.41
17209;BME280;8720;48.488;9.202;2023-02-28T05:51:10;97527.88;;;3.62;47.32
17209;BME280;8720;48.488;9.202;2023-02-28T05:53:37;97527.88;;;3.62;47.48
17209;BME280;8720;48.488;9.202;2023-02-28T05:56:05;97530.47;;;3.62;47.23
17209;BME280;8720;48.488;9.202;2023-02-28T05:58:33;97525.28;;;3.62;47.52
17209;BME280;8720;48.488;9.202;2023-02-28T06:01:21;97530.41;;;3.61;47.58
17209;BME280;8720;48.488;9.202;2023-02-28T06:03:49;97508.75;;;3.53;47.49
17209;BME280;8720;48.488;9.202;2023-02-28T06:06:16;97531.28;;;3.60;47.75
17209;BME280;8720;48.488;9.202;2023-02-28T06:08:44;97516.56;;;3.56;47.62
17209;BME280;8720;48.488;9.202;2023-02-28T06:11:11;97539.13;;;3.66;47.35
17209;BME280;8720;48.488;9.202;2023-02-28T06:13:39;97526.13;;;3.64;47.71
17209;BME280;8720;48.488;9.202;2023-02-28T06:16:08;97542.63;;;3.72;47.57
17209;BME280;8720;48.488;9.202;2023-02-28T06:18:36;97541.72;;;3.69;47.51
17209;BME280;8720;48.488;9.202;2023-02-28T06:21:04;97541.06;;;3.88;47.67
17209;BME280;8720;48.488;9.202;2023-02-28T06:23:31;97549.78;;;3.96;47.31
17209;BME280;8720;48.488;9.202;2023-02-28T06:25:59;97548.91;;;3.96;47.18
17209;BME280;8720;48.488;9.202;2023-02-28T06:28:26;97550.63;;;3.95;47.24
17209;BME280;8720;48.488;9.202;2023-02-28T06:30:53;97552.38;;;3.98;47.08
17209;BME280;8720;48.488;9.202;2023-02-28T06:33:20;97555.84;;;3.98;47.20
17209;BME280;8720;48.488;9.202;2023-02-28T06:35:51;97549.75;;;3.95;47.21
17209;BME280;8720;48.488;9.202;2023-02-28T06:38:18;97565.38;;;4.01;47.16
17209;BME280;8720;48.488;9.202;2023-02-28T06:40:53;97561.06;;;4.03;47.26
17209;BME280;8720;48.488;9.202;2023-02-28T06:43:21;97563.66;;;4.03;47.21
17209;BME280;8720;48.488;9.202;2023-02-28T06:45:48;97567.97;;;4.04;47.52
17209;BME280;8720;48.488;9.202;2023-02-28T06:48:16;97571.44;;;4.06;47.32
17209;BME280;8720;48.488;9.202;2023-02-28T06:50:43;97572.31;;;4.08;47.23
17209;BME280;8720;48.488;9.202;2023-02-28T06:53:12;97577.50;;;4.08;47.20
17209;BME280;8720;48.488;9.202;2023-02-28T06:55:41;97572.31;;;4.08;47.53
17209;BME280;8720;48.488;9.202;2023-02-28T06:58:08;97568.03;;;4.13;47.45
17209;BME280;8720;48.488;9.202;2023-02-28T07:00:41;97568.09;;;4.17;47.13
17209;BME280;8720;48.488;9.202;2023-02-28T07:03:08;97578.47;;;4.19;47.13
17209;BME280;8720;48.488;9.202;2023-02-28T07:05:36;97569.88;;;4.21;47.20
17209;BME280;8720;48.488;9.202;2023-02-28T07:08:05;97577.66;;;4.24;47.38
17209;BME280;8720;48.488;9.202;2023-02-28T07:10:34;97566.47;;;4.25;47.17
17209;BME280;8720;48.488;9.202;2023-02-28T07:13:04;97576.88;;;4.30;47.25
17209;BME280;8720;48.488;9.202;2023-02-28T07:15:32;97580.34;;;4.32;47.19
17209;BME280;8720;48.488;9.202;2023-02-28T07:17:59;97583.81;;;4.37;47.08
17209;BME280;8720;48.488;9.202;2023-02-28T07:20:26;97581.28;;;4.41;47.19
17209;BME280;8720;48.488;9.202;2023-02-28T07:22:54;97583.91;;;4.47;47.23
17209;BME280;8720;48.488;9.202;2023-02-28T07:25:23;97583.97;;;4.52;47.02
17209;BME280;8720;48.488;9.202;2023-02-28T07:27:51;97585.72;;;4.56;46.96
17209;BME280;8720;48.488;9.202;2023-02-28T07:30:20;97584.91;;;4.60;46.87
17209;BME280;8720;48.488;9.202;2023-02-28T07:32:47;97590.97;;;4.62;46.94
17209;BME280;8720;48.488;9.202;2023-02-28T07:35:15;97599.63;;;4.67;46.83
17209;BME280;8720;48.488;9.202;2023-02-28T07:37:42;97581.53;;;4.72;46.86
17209;BME280;8720;48.488;9.202;2023-02-28T07:40:12;97575.50;;;4.76;46.80
17209;BME280;8720;48.488;9.202;2023-02-28T07:42:40;97577.22;;;4.75;46.83
17209;BME280;8720;48.488;9.202;2023-02-28T07:45:11;97591.06;;;4.76;46.73
17209;BME280;8720;48.488;9.202;2023-02-28T07:47:38;97586.75;;;4.76;46.61
17209;BME280;8720;48.488;9.202;2023-02-28T07:50:07;97593.66;;;4.79;46.56
17209;BME280;8720;48.488;9.202;2023-02-28T07:52:36;97592.84;;;4.81;46.62
17209;BME280;8720;48.488;9.202;2023-02-28T07:55:06;97600.59;;;4.83;46.39
17209;BME280;8720;48.488;9.202;2023-02-28T07:57:34;97593.72;;;4.83;46.39
17209;BME280;8720;48.488;9.202;2023-02-28T08:00:01;97594.59;;;4.87;46.42
17209;BME280;8720;48.488;9.202;2023-02-28T08:02:39;97597.19;;;4.88;46.45
17209;BME280;8720;48.488;9.202;2023-02-28T08:05:07;97604.13;;;4.88;46.23
17209;BME280;8720;48.488;9.202;2023-02-28T08:07:35;97594.59;;;4.85;46.46
17209;BME280;8720;48.488;9.202;2023-02-28T08:10:03;97604.09;;;4.83;46.43
17209;BME280;8720;48.488;9.202;2023-02-28T08:12:32;97604.91;;;4.82;46.32
17209;BME280;8720;48.488;9.202;2023-02-28T08:15:00;97610.16;;;4.87;46.43
17209;BME280;8720;48.488;9.202;2023-02-28T08:17:27;97611.03;;;4.90;46.40
17209;BME280;8720;48.488;9.202;2023-02-28T08:19:56;97618.03;;;4.99;46.42
17209;BME280;8720;48.488;9.202;2023-02-28T08:22:23;97618.91;;;5.05;46.28
17209;BME280;8720;48.488;9.202;2023-02-28T08:24:50;97613.78;;;5.08;46.35
17209;BME280;8720;48.488;9.202;2023-02-28T08:27:17;97618.94;;;5.08;46.24
17209;BME280;8720;48.488;9.202;2023-02-28T08:29:45;97618.94;;;5.08;45.99
17209;BME280;8720;48.488;9.202;2023-02-28T08:32:12;97619.84;;;5.12;46.29
17209;BME280;8720;48.488;9.202;2023-02-28T08:34:40;97615.53;;;5.14;46.19
17209;BME280;8720;48.488;9.202;2023-02-28T08:37:08;97612.94;;;5.14;46.26
17209;BME280;8720;48.488;9.202;2023-02-28T08:39:36;97624.19;;;5.17;46.14
17209;BME280;8720;48.488;9.202;2023-02-28T08:42:04;97618.16;;;5.20;46.20
17209;BME280;8720;48.488;9.202;2023-02-28T08:44:32;97621.66;;;5.23;46.24
17209;BME280;8720;48.488;9.202;2023-02-28T08:46:59;97626.00;;;5.29;46.16
17209;BME280;8720;48.488;9.202;2023-02-28T08:49:27;97619.09;;;5.31;46.18
17209;BME280;8720;48.488;9.202;2023-02-28T08:51:54;97615.66;;;5.36;45.92
17209;BME280;8720;48.488;9.202;2023-02-28T08:54:24;97621.72;;;5.38;46.16
17209;BME280;8720;48.488;9.202;2023-02-28T08:56:52;97629.56;;;5.41;46.14
17209;BME280;8720;48.488;9.202;2023-02-28T08:59:19;97629.56;;;5.43;45.94
17209;BME280;8720;48.488;9.202;2023-02-28T09:01:46;97637.34;;;5.41;45.89
17209;BME280;8720;48.488;9.202;2023-02-28T09:04:14;97633.84;;;5.38;45.66
17209;BME280;8720;48.488;9.202;2023-02-28T09:06:41;97637.25;;;5.32;45.85
17209;BME280;8720;48.488;9.202;2023-02-28T09:09:08;97644.16;;;5.30;45.86
17209;BME280;8720;48.488;9.202;2023-02-28T09:11:37;97647.63;;;5.29;45.81
17209;BME280;8720;48.488;9.202;2023-02-28T09:14:05;97642.44;;;5.31;46.09
17209;BME280;8720;48.488;9.202;2023-02-28T09:16:34;97640.72;;;5.33;45.99
17209;BME280;8720;48.488;9.202;2023-02-28T09:19:01;97632.94;;;5.34;45.83
17209;BME280;8720;48.488;9.202;2023-02-28T09:21:29;97646.88;;;5.45;45.85
17209;BME280;8720;48.488;9.202;2023-02-28T09:23:56;97654.66;;;5.48;45.65
17209;BME280;8720;48.488;9.202;2023-02-28T09:26:26;97663.28;;;5.46;45.73
17209;BME280;8720;48.488;9.202;2023-02-28T09:28:55;97653.75;;;5.42;45.71
17209;BME280;8720;48.488;9.202;2023-02-28T09:31:27;97649.38;;;5.35;45.58
17209;BME280;8720;48.488;9.202;2023-02-28T09:33:56;97663.28;;;5.44;45.97
17209;BME280;8720;48.488;9.202;2023-02-28T09:36:26;97658.13;;;5.47;46.02
17209;BME280;8720;48.488;9.202;2023-02-28T09:38:55;97659.84;;;5.50;45.94
17209;BME280;8720;48.488;9.202;2023-02-28T09:41:26;97653.81;;;5.51;45.70
17209;BME280;8720;48.488;9.202;2023-02-28T09:43:58;97656.44;;;5.59;45.67
17209;BME280;8720;48.488;9.202;2023-02-28T09:46:33;97665.13;;;5.61;45.50
17209;BME280;8720;48.488;9.202;2023-02-28T09:49:07;97659.03;;;5.60;45.66
17209;BME280;8720;48.488;9.202;2023-02-28T09:51:48;97664.47;;;6.01;43.73
17209;BME280;8720;48.488;9.202;2023-02-28T09:54:20;97664.47;;;6.01;44.07
17209;BME280;8720;48.488;9.202;2023-02-28T09:56:52;97659.25;;;5.98;44.71
17209;BME280;8720;48.488;9.202;2023-02-28T09:59:41;97669.66;;;6.02;45.10
17209;BME280;8720;48.488;9.202;2023-02-28T10:02:33;97670.53;;;6.06;45.15
17209;BME280;8720;48.488;9.202;2023-02-28T10:05:15;97670.56;;;6.09;45.08
17209;BME280;8720;48.488;9.202;2023-02-28T10:08:00;97664.50;;;6.08;45.21
17209;BME280;8720;48.488;9.202;2023-02-28T10:10:39;97674.09;;;6.24;44.91
17209;BME280;8720;48.488;9.202;2023-02-28T10:13:19;97682.75;;;6.28;45.12
17209;BME280;8720;48.488;9.202;2023-02-28T10:15:55;97675.84;;;6.30;45.10
17209;BME280;8720;48.488;9.202;2023-02-28T10:18:30;97677.56;;;6.29;45.06
17209;BME280;8720;48.488;9.202;2023-02-28T10:21:03;97668.91;;;6.29;44.83
17209;BME280;8720;48.488;9.202;2023-02-28T10:23:34;97680.19;;;6.34;44.90
17209;BME280;8720;48.488;9.202;2023-02-28T10:26:13;97673.28;;;6.42;44.91
17209;BME280;8720;48.488;9.202;2023-02-28T10:28:42;97668.09;;;6.45;44.96
17209;BME280;8720;48.488;9.202;2023-02-28T10:31:17;97671.56;;;6.53;44.65
17209;BME280;8720;48.488;9.202;2023-02-28T10:33:45;97666.38;;;6.56;44.99
17209;BME280;8720;48.488;9.202;2023-02-28T10:36:17;97679.41;;;6.65;44.88
17209;BME280;8720;48.488;9.202;2023-02-28T10:38:46;97681.13;;;6.75;44.70
17209;BME280;8720;48.488;9.202;2023-02-28T10:41:16;97675.94;;;6.74;44.66
17209;BME280;8720;48.488;9.202;2023-02-28T10:44:15;97682.88;;;6.84;44.67
17209;BME280;8720;48.488;9.202;2023-02-28T10:46:46;97672.47;;;6.84;44.53
17209;BME280;8720;48.488;9.202;2023-02-28T10:49:19;97677.69;;;6.91;44.74
17209;BME280;8720;48.488;9.202;2023-02-28T10:51:52;97679.44;;;7.01;44.38
17209;BME280;8720;48.488;9.202;2023-02-28T10:54:26;97681.16;;;7.14;44.42
17209;BME280;8720;48.488;9.202;2023-02-28T10:57:16;97661.22;;;7.18;44.38
17209;BME280;8720;48.488;9.202;2023-02-28T10:59:44;97669.00;;;7.30;44.55
17209;BME280;8720;48.488;9.202;2023-02-28T11:02:33;97668.16;;;7.40;44.40
17209;BME280;8720;48.488;9.202;2023-02-28T11:05:01;97672.44;;;7.53;44.35
17209;BME280;8720;48.488;9.202;2023-02-28T11:07:29;97677.63;;;7.64;44.21
17209;BME280;8720;48.488;9.202;2023-02-28T11:09:58;97674.13;;;7.75;44.08
17209;BME280;8720;48.488;9.202;2023-02-28T11:12:31;97682.78;;;7.83;43.83
17209;BME280;8720;48.488;9.202;2023-02-28T11:15:05;97680.19;;;7.83;43.87
17209;BME280;8720;48.488;9.202;2023-02-28T11:17:34;97688.00;;;7.88;43.76
17209;BME280;8720;48.488;9.202;2023-02-28T11:20:06;97688.88;;;7.88;43.58
17209;BME280;8720;48.488;9.202;2023-02-28T11:22:39;97686.28;;;7.88;43.57
17209;BME280;8720;48.488;9.202;2023-02-28T11:25:21;97675.81;;;7.97;43.55
17209;BME280;8720;48.488;9.202;2023-02-28T11:27:51;97681.84;;;8.13;43.88
17209;BME280;8720;48.488;9.202;2023-02-28T11:30:36;97677.44;;;8.24;43.49
17209;BME280;8720;48.488;9.202;2023-02-28T11:33:23;97681.81;;;8.28;43.51
17209;BME280;8720;48.488;9.202;2023-02-28T11:35:53;97667.00;;;8.24;43.52
17209;BME280;8720;48.488;9.202;2023-02-28T11:38:26;97680.03;;;8.32;43.39
17209;BME280;8720;48.488;9.202;2023-02-28T11:41:14;97670.47;;;8.37;43.31
17209;BME280;8720;48.488;9.202;2023-02-28T11:44:05;97664.41;;;8.32;43.15
17209;BME280;8720;48.488;9.202;2023-02-28T11:46:44;97680.94;;;8.29;43.22
17209;BME280;8720;48.488;9.202;2023-02-28T11:49:35;97676.59;;;8.28;43.16
17209;BME280;8720;48.488;9.202;2023-02-28T11:52:20;97669.63;;;8.30;42.97
17209;BME280;8720;48.488;9.202;2023-02-28T11:55:16;97653.13;;;8.28;43.21
17209;BME280;8720;48.488;9.202;2023-02-28T11:58:26;97658.31;;;8.39;43.24
17209;BME280;8720;48.488;9.202;2023-02-28T12:04:17;97654.81;;;8.38;43.22
17209;BME280;8720;48.488;9.202;2023-02-28T12:06:57;97647.00;;;8.38;43.21
17209;BME280;8720;48.488;9.202;2023-02-28T12:09:53;97644.41;;;8.38;43.24
17209;BME280;8720;48.488;9.202;2023-02-28T12:12:40;97647.00;;;8.35;43.21
17209;BME280;8720;48.488;9.202;2023-02-28T12:15:32;97644.41;;;8.34;43.05
17209;BME280;8720;48.488;9.202;2023-02-28T12:18:42;97641.81;;;8.31;43.25
17209;BME280;8720;48.488;9.202;2023-02-28T12:21:27;97624.47;;;8.27;43.18
17209;BME280;8720;48.488;9.202;2023-02-28T12:27:08;97620.09;;;8.35;43.29
17209;BME280;8720;48.488;9.202;2023-02-28T12:29:46;97633.88;;;8.53;43.14
17209;BME280;8720;48.488;9.202;2023-02-28T12:32:21;97643.38;;;8.60;43.21
17209;BME280;8720;48.488;9.202;2023-02-28T12:34:56;97632.88;;;8.71;42.94
17209;BME280;8720;48.488;9.202;2023-02-28T12:37:36;97629.31;;;8.79;43.00
17209;BME280;8720;48.488;9.202;2023-02-28T12:40:13;97637.97;;;8.87;42.81
17209;BME280;8720;48.488;9.202;2023-02-28T12:42:46;97635.28;;;8.95;42.61
17209;BME280;8720;48.488;9.202;2023-02-28T12:45:20;97633.50;;;9.03;42.47
17209;BME280;8720;48.488;9.202;2023-02-28T12:47:57;97627.41;;;9.05;42.27
17209;BME280;8720;48.488;9.202;2023-02-28T12:50:28;97627.41;;;9.05;42.40
17209;BME280;8720;48.488;9.202;2023-02-28T12:53:03;97612.66;;;9.01;41.91
17209;BME280;8720;48.488;9.202;2023-02-28T12:55:44;97623.91;;;9.06;42.40
17209;BME280;8720;48.488;9.202;2023-02-28T12:58:25;97615.16;;;9.10;42.19
17209;BME280;8720;48.488;9.202;2023-02-28T13:04:43;97613.50;;;9.03;42.39
17209;BME280;8720;48.488;9.202;2023-02-28T13:08:04;97606.59;;;8.98;42.45
17209;BME280;8720;48.488;9.202;2023-02-28T13:10:44;97608.38;;;8.91;41.96
17209;BME280;8720;48.488;9.202;2023-02-28T13:13:21;97605.81;;;8.87;42.25
17209;BME280;8720;48.488;9.202;2023-02-28T13:16:05;97592.81;;;8.81;42.23
17209;BME280;8720;48.488;9.202;2023-02-28T13:18:36;97593.69;;;8.78;42.05
17209;BME280;8720;48.488;9.202;2023-02-28T13:21:07;97592.88;;;8.73;42.11
17209;BME280;8720;48.488;9.202;2023-02-28T13:23:59;97596.34;;;8.75;42.26
17209;BME280;8720;48.488;9.202;2023-02-28T13:27:32;97586.75;;;8.76;42.63
17209;BME280;8720;48.488;9.202;2023-02-28T13:30:01;97595.44;;;8.78;42.40
17209;BME280;8720;48.488;9.202;2023-02-28T13:32:33;97598.91;;;8.83;42.29
17209;BME280;8720;48.488;9.202;2023-02-28T13:38:32;97601.41;;;8.93;42.86
17209;BME280;8720;48.488;9.202;2023-02-28T13:41:42;97599.56;;;9.04;42.79
17209;BME280;8720;48.488;9.202;2023-02-28T13:44:13;97593.41;;;9.11;42.47
17209;BME280;8720;48.488;9.202;2023-02-28T13:47:22;97592.47;;;9.22;42.61
17209;BME280;8720;48.488;9.202;2023-02-28T13:49:52;97588.88;;;9.30;42.23
17209;BME280;8720;48.488;9.202;2023-02-28T13:52:23;97584.44;;;9.38;42.24
17209;BME280;8720;48.488;9.202;2023-02-28T13:55:24;97579.97;;;9.52;42.29
17209;BME280;8720;48.488;9.202;2023-02-28T13:58:22;97581.59;;;9.61;41.95
17209;BME280;8720;48.488;9.202;2023-02-28T14:01:15;97580.66;;;9.65;42.14
17209;BME280;8720;48.488;9.202;2023-02-28T14:04:08;97563.38;;;9.56;41.79
17209;BME280;8720;48.488;9.202;2023-02-28T14:06:47;97597.03;;;9.80;41.70
17209;BME280;8720;48.488;9.202;2023-02-28T14:09:24;97587.38;;;9.85;41.54
17209;BME280;8720;48.488;9.202;2023-02-28T14:11:53;97593.44;;;9.87;41.55
17209;BME280;8720;48.488;9.202;2023-02-28T14:14:55;97592.63;;;9.87;41.69
17209;BME280;8720;48.488;9.202;2023-02-28T14:17:30;97593.53;;;9.83;41.27